sensor_id;sensor_type;location;lat;lon;timestamp;P1;durP1;ratioP1;P2;durP2;ratioP2
74974;SDS011;68459;50.836;19.138;2023-07-29T00:01:19;6.60;;;4.20;;
74974;SDS011;68459;50.836;19.138;2023-07-29T00:04:23;5.63;;;3.70;;
74974;SDS011;68459;50.836;19.138;2023-07-29T00:07:28;5.97;;;3.25;;
74974;SDS011;68459;50.836;19.138;2023-07-29T00:10:33;5.77;;;3.30;;
74974;SDS011;68459;50.836;19.138;2023-07-29T00:13:39;6.43;;;3.85;;
74974;SDS011;68459;50.836;19.138;2023-07-29T00:16:43;5.22;;;3.63;;
74974;SDS011;68459;50.836;19.138;2023-07-29T00:19:47;5.97;;;3.60;;
74974;SDS011;68459;50.836;19.138;2023-07-29T00:22:52;7.17;;;3.43;;
74974;SDS011;68459;50.836;19.138;2023-07-29T00:25:56;8.68;;;3.95;;
74974;SDS011;68459;50.836;19.138;2023-07-29T00:29:00;6.07;;;3.88;;
74974;SDS011;68459;50.836;19.138;2023-07-29T00:32:04;6.13;;;3.90;;
74974;SDS011;68459;50.836;19.138;2023-07-29T00:35:09;7.30;;;4.87;;
74974;SDS011;68459;50.836;19.138;2023-07-29T00:38:14;9.02;;;4.50;;
74974;SDS011;68459;50.836;19.138;2023-07-29T00:41:18;6.75;;;4.70;;
74974;SDS011;68459;50.836;19.138;2023-07-29T00:44:24;8.93;;;5.18;;
74974;SDS011;68459;50.836;19.138;2023-07-29T00:47:29;6.87;;;4.43;;
74974;SDS011;68459;50.836;19.138;2023-07-29T00:50:32;7.50;;;4.00;;
74974;SDS011;68459;50.836;19.138;2023-07-29T00:53:38;8.80;;;4.53;;
74974;SDS011;68459;50.836;19.138;2023-07-29T00:56:41;7.40;;;4.68;;
74974;SDS011;68459;50.836;19.138;2023-07-29T00:59:46;8.65;;;4.30;;
74974;SDS011;68459;50.836;19.138;2023-07-29T01:02:50;7.28;;;4.50;;
74974;SDS011;68459;50.836;19.138;2023-07-29T01:06:00;5.97;;;4.03;;
74974;SDS011;68459;50.836;19.138;2023-07-29T01:09:17;8.00;;;4.00;;
74974;SDS011;68459;50.836;19.138;2023-07-29T01:12:31;8.35;;;4.20;;
74974;SDS011;68459;50.836;19.138;2023-07-29T01:15:49;5.43;;;3.92;;
74974;SDS011;68459;50.836;19.138;2023-07-29T01:18:59;5.97;;;4.05;;
74974;SDS011;68459;50.836;19.138;2023-07-29T01:22:09;5.38;;;3.80;;
74974;SDS011;68459;50.836;19.138;2023-07-29T01:25:16;4.78;;;3.05;;
74974;SDS011;68459;50.836;19.138;2023-07-29T01:28:20;7.00;;;3.83;;
74974;SDS011;68459;50.836;19.138;2023-07-29T01:31:27;7.30;;;3.90;;
74974;SDS011;68459;50.836;19.138;2023-07-29T01:34:39;5.18;;;3.72;;
74974;SDS011;68459;50.836;19.138;2023-07-29T01:37:51;5.88;;;3.38;;
74974;SDS011;68459;50.836;19.138;2023-07-29T01:40:59;6.45;;;3.70;;
74974;SDS011;68459;50.836;19.138;2023-07-29T01:44:06;4.75;;;3.03;;
74974;SDS011;68459;50.836;19.138;2023-07-29T01:47:10;6.80;;;3.28;;
74974;SDS011;68459;50.836;19.138;2023-07-29T01:50:15;4.60;;;3.28;;
74974;SDS011;68459;50.836;19.138;2023-07-29T01:53:19;4.93;;;3.40;;
74974;SDS011;68459;50.836;19.138;2023-07-29T01:56:24;6.15;;;3.78;;
74974;SDS011;68459;50.836;19.138;2023-07-29T01:59:30;5.10;;;3.50;;
74974;SDS011;68459;50.836;19.138;2023-07-29T02:02:34;6.07;;;3.42;;
74974;SDS011;68459;50.836;19.138;2023-07-29T02:05:38;5.00;;;3.22;;
74974;SDS011;68459;50.836;19.138;2023-07-29T02:08:42;4.43;;;3.40;;
74974;SDS011;68459;50.836;19.138;2023-07-29T02:11:47;5.18;;;3.20;;
74974;SDS011;68459;50.836;19.138;2023-07-29T02:14:51;6.93;;;3.60;;
74974;SDS011;68459;50.836;19.138;2023-07-29T02:17:54;6.93;;;3.67;;
74974;SDS011;68459;50.836;19.138;2023-07-29T02:20:59;4.32;;;3.30;;
74974;SDS011;68459;50.836;19.138;2023-07-29T02:24:02;5.77;;;3.30;;
74974;SDS011;68459;50.836;19.138;2023-07-29T02:27:09;7.95;;;3.70;;
74974;SDS011;68459;50.836;19.138;2023-07-29T02:30:12;6.05;;;3.35;;
74974;SDS011;68459;50.836;19.138;2023-07-29T02:33:16;4.45;;;3.28;;
74974;SDS011;68459;50.836;19.138;2023-07-29T02:36:20;5.75;;;3.95;;
74974;SDS011;68459;50.836;19.138;2023-07-29T02:39:30;9.15;;;4.55;;
74974;SDS011;68459;50.836;19.138;2023-07-29T02:42:35;6.20;;;3.15;;
74974;SDS011;68459;50.836;19.138;2023-07-29T02:45:40;5.13;;;3.10;;
74974;SDS011;68459;50.836;19.138;2023-07-29T02:48:44;4.57;;;3.00;;
74974;SDS011;68459;50.836;19.138;2023-07-29T02:51:48;7.07;;;3.47;;
74974;SDS011;68459;50.836;19.138;2023-07-29T02:54:52;5.35;;;3.15;;
74974;SDS011;68459;50.836;19.138;2023-07-29T02:57:57;4.20;;;3.13;;
74974;SDS011;68459;50.836;19.138;2023-07-29T03:01:01;4.80;;;3.25;;
74974;SDS011;68459;50.836;19.138;2023-07-29T03:04:06;8.43;;;3.60;;
74974;SDS011;68459;50.836;19.138;2023-07-29T03:07:10;7.30;;;3.77;;
74974;SDS011;68459;50.836;19.138;2023-07-29T03:10:15;6.50;;;3.50;;
74974;SDS011;68459;50.836;19.138;2023-07-29T03:13:21;5.97;;;3.60;;
74974;SDS011;68459;50.836;19.138;2023-07-29T03:16:25;6.72;;;3.40;;
74974;SDS011;68459;50.836;19.138;2023-07-29T03:19:31;7.85;;;3.17;;
74974;SDS011;68459;50.836;19.138;2023-07-29T03:22:35;4.95;;;3.17;;
74974;SDS011;68459;50.836;19.138;2023-07-29T03:25:38;5.55;;;3.70;;
74974;SDS011;68459;50.836;19.138;2023-07-29T03:28:44;8.80;;;3.70;;
74974;SDS011;68459;50.836;19.138;2023-07-29T03:31:48;5.82;;;3.33;;
74974;SDS011;68459;50.836;19.138;2023-07-29T03:34:52;4.40;;;3.35;;
74974;SDS011;68459;50.836;19.138;2023-07-29T03:37:56;5.57;;;3.65;;
74974;SDS011;68459;50.836;19.138;2023-07-29T03:41:00;5.10;;;3.35;;
74974;SDS011;68459;50.836;19.138;2023-07-29T03:44:06;6.70;;;3.97;;
74974;SDS011;68459;50.836;19.138;2023-07-29T03:47:10;5.35;;;3.67;;
74974;SDS011;68459;50.836;19.138;2023-07-29T03:50:16;5.87;;;3.63;;
74974;SDS011;68459;50.836;19.138;2023-07-29T03:53:20;6.05;;;3.53;;
74974;SDS011;68459;50.836;19.138;2023-07-29T03:56:24;9.98;;;3.60;;
74974;SDS011;68459;50.836;19.138;2023-07-29T03:59:30;5.27;;;3.63;;
74974;SDS011;68459;50.836;19.138;2023-07-29T04:02:34;5.80;;;3.78;;
74974;SDS011;68459;50.836;19.138;2023-07-29T04:05:40;6.43;;;3.25;;
74974;SDS011;68459;50.836;19.138;2023-07-29T04:08:43;4.70;;;3.10;;
74974;SDS011;68459;50.836;19.138;2023-07-29T04:11:47;5.90;;;3.10;;
74974;SDS011;68459;50.836;19.138;2023-07-29T04:14:53;6.72;;;3.08;;
74974;SDS011;68459;50.836;19.138;2023-07-29T04:17:57;6.93;;;3.30;;
74974;SDS011;68459;50.836;19.138;2023-07-29T04:21:01;6.30;;;3.70;;
74974;SDS011;68459;50.836;19.138;2023-07-29T04:24:05;6.75;;;3.47;;
74974;SDS011;68459;50.836;19.138;2023-07-29T04:27:08;5.88;;;3.35;;
74974;SDS011;68459;50.836;19.138;2023-07-29T04:30:14;5.47;;;3.63;;
74974;SDS011;68459;50.836;19.138;2023-07-29T04:33:17;8.50;;;3.55;;
74974;SDS011;68459;50.836;19.138;2023-07-29T04:36:21;5.28;;;3.50;;
74974;SDS011;68459;50.836;19.138;2023-07-29T04:39:25;7.38;;;3.67;;
74974;SDS011;68459;50.836;19.138;2023-07-29T04:42:30;5.97;;;3.80;;
74974;SDS011;68459;50.836;19.138;2023-07-29T04:45:35;7.05;;;3.50;;
74974;SDS011;68459;50.836;19.138;2023-07-29T04:48:39;7.50;;;3.78;;
74974;SDS011;68459;50.836;19.138;2023-07-29T04:51:43;5.75;;;3.65;;
74974;SDS011;68459;50.836;19.138;2023-07-29T04:54:47;5.65;;;3.42;;
74974;SDS011;68459;50.836;19.138;2023-07-29T04:57:50;6.30;;;3.63;;
74974;SDS011;68459;50.836;19.138;2023-07-29T05:00:56;5.70;;;3.80;;
74974;SDS011;68459;50.836;19.138;2023-07-29T05:04:01;4.80;;;3.37;;
74974;SDS011;68459;50.836;19.138;2023-07-29T05:07:05;4.80;;;3.40;;
74974;SDS011;68459;50.836;19.138;2023-07-29T05:10:09;4.45;;;3.03;;
74974;SDS011;68459;50.836;19.138;2023-07-29T05:13:13;6.05;;;3.50;;
74974;SDS011;68459;50.836;19.138;2023-07-29T05:16:19;7.20;;;3.45;;
74974;SDS011;68459;50.836;19.138;2023-07-29T05:19:23;5.22;;;3.53;;
74974;SDS011;68459;50.836;19.138;2023-07-29T05:22:27;5.50;;;3.50;;
74974;SDS011;68459;50.836;19.138;2023-07-29T05:25:31;5.63;;;3.58;;
74974;SDS011;68459;50.836;19.138;2023-07-29T05:28:36;4.77;;;3.20;;
74974;SDS011;68459;50.836;19.138;2023-07-29T05:31:41;6.45;;;3.22;;
74974;SDS011;68459;50.836;19.138;2023-07-29T05:34:45;5.65;;;3.15;;
74974;SDS011;68459;50.836;19.138;2023-07-29T05:37:49;5.63;;;3.25;;
74974;SDS011;68459;50.836;19.138;2023-07-29T05:40:53;3.97;;;3.10;;
74974;SDS011;68459;50.836;19.138;2023-07-29T05:43:57;4.57;;;2.85;;
74974;SDS011;68459;50.836;19.138;2023-07-29T05:47:02;5.40;;;2.90;;
74974;SDS011;68459;50.836;19.138;2023-07-29T05:50:07;5.03;;;2.80;;
74974;SDS011;68459;50.836;19.138;2023-07-29T05:53:12;4.87;;;3.07;;
74974;SDS011;68459;50.836;19.138;2023-07-29T05:56:16;4.50;;;2.88;;
74974;SDS011;68459;50.836;19.138;2023-07-29T05:59:19;4.03;;;2.65;;
74974;SDS011;68459;50.836;19.138;2023-07-29T06:02:26;3.97;;;2.40;;
74974;SDS011;68459;50.836;19.138;2023-07-29T06:05:30;4.17;;;2.73;;
74974;SDS011;68459;50.836;19.138;2023-07-29T06:08:34;6.05;;;2.20;;
74974;SDS011;68459;50.836;19.138;2023-07-29T06:11:38;6.13;;;2.30;;
74974;SDS011;68459;50.836;19.138;2023-07-29T06:14:41;5.55;;;2.30;;
74974;SDS011;68459;50.836;19.138;2023-07-29T06:17:47;5.63;;;2.67;;
74974;SDS011;68459;50.836;19.138;2023-07-29T06:20:51;4.80;;;2.60;;
74974;SDS011;68459;50.836;19.138;2023-07-29T06:23:54;5.78;;;2.63;;
74974;SDS011;68459;50.836;19.138;2023-07-29T06:26:58;3.22;;;2.00;;
74974;SDS011;68459;50.836;19.138;2023-07-29T06:30:02;5.22;;;2.00;;
74974;SDS011;68459;50.836;19.138;2023-07-29T06:33:08;3.87;;;2.17;;
74974;SDS011;68459;50.836;19.138;2023-07-29T06:36:12;3.08;;;1.70;;
74974;SDS011;68459;50.836;19.138;2023-07-29T06:39:16;2.28;;;1.80;;
74974;SDS011;68459;50.836;19.138;2023-07-29T06:42:19;2.10;;;1.40;;
74974;SDS011;68459;50.836;19.138;2023-07-29T06:45:23;2.43;;;1.30;;
74974;SDS011;68459;50.836;19.138;2023-07-29T06:48:28;4.85;;;1.77;;
74974;SDS011;68459;50.836;19.138;2023-07-29T06:51:32;2.47;;;1.38;;
74974;SDS011;68459;50.836;19.138;2023-07-29T06:54:37;3.72;;;1.80;;
74974;SDS011;68459;50.836;19.138;2023-07-29T06:57:41;3.23;;;1.77;;
74974;SDS011;68459;50.836;19.138;2023-07-29T07:00:45;3.13;;;1.17;;
74974;SDS011;68459;50.836;19.138;2023-07-29T07:03:50;2.72;;;1.70;;
74974;SDS011;68459;50.836;19.138;2023-07-29T07:06:56;2.47;;;1.50;;
74974;SDS011;68459;50.836;19.138;2023-07-29T07:10:00;2.03;;;1.17;;
74974;SDS011;68459;50.836;19.138;2023-07-29T07:13:04;2.88;;;1.50;;
74974;SDS011;68459;50.836;19.138;2023-07-29T07:16:08;2.28;;;1.23;;
74974;SDS011;68459;50.836;19.138;2023-07-29T07:19:13;2.78;;;1.55;;
74974;SDS011;68459;50.836;19.138;2023-07-29T07:22:17;2.83;;;1.42;;
74974;SDS011;68459;50.836;19.138;2023-07-29T07:25:21;3.50;;;1.60;;
74974;SDS011;68459;50.836;19.138;2023-07-29T07:28:25;3.53;;;1.30;;
74974;SDS011;68459;50.836;19.138;2023-07-29T07:31:32;2.00;;;1.20;;
74974;SDS011;68459;50.836;19.138;2023-07-29T07:34:39;2.47;;;1.30;;
74974;SDS011;68459;50.836;19.138;2023-07-29T07:37:42;5.13;;;1.47;;
74974;SDS011;68459;50.836;19.138;2023-07-29T07:40:52;2.10;;;1.30;;
74974;SDS011;68459;50.836;19.138;2023-07-29T07:43:57;2.78;;;1.30;;
74974;SDS011;68459;50.836;19.138;2023-07-29T07:47:01;2.20;;;1.33;;
74974;SDS011;68459;50.836;19.138;2023-07-29T07:50:07;2.28;;;1.20;;
74974;SDS011;68459;50.836;19.138;2023-07-29T07:53:12;3.38;;;1.20;;
74974;SDS011;68459;50.836;19.138;2023-07-29T07:56:16;2.20;;;1.30;;
74974;SDS011;68459;50.836;19.138;2023-07-29T07:59:20;2.22;;;1.35;;
74974;SDS011;68459;50.836;19.138;2023-07-29T08:02:24;2.78;;;1.40;;
74974;SDS011;68459;50.836;19.138;2023-07-29T08:05:29;5.77;;;2.17;;
74974;SDS011;68459;50.836;19.138;2023-07-29T08:08:34;4.43;;;1.50;;
74974;SDS011;68459;50.836;19.138;2023-07-29T08:11:37;2.30;;;1.40;;
74974;SDS011;68459;50.836;19.138;2023-07-29T08:14:41;2.65;;;1.65;;
74974;SDS011;68459;50.836;19.138;2023-07-29T08:17:45;2.45;;;1.60;;
74974;SDS011;68459;50.836;19.138;2023-07-29T08:20:54;2.53;;;1.43;;
74974;SDS011;68459;50.836;19.138;2023-07-29T08:24:00;4.10;;;1.40;;
74974;SDS011;68459;50.836;19.138;2023-07-29T08:27:04;3.78;;;1.42;;
74974;SDS011;68459;50.836;19.138;2023-07-29T08:30:09;2.70;;;1.30;;
74974;SDS011;68459;50.836;19.138;2023-07-29T08:33:14;3.38;;;1.60;;
74974;SDS011;68459;50.836;19.138;2023-07-29T08:36:19;5.20;;;1.93;;
74974;SDS011;68459;50.836;19.138;2023-07-29T08:39:23;2.35;;;1.50;;
74974;SDS011;68459;50.836;19.138;2023-07-29T08:42:28;2.83;;;1.60;;
74974;SDS011;68459;50.836;19.138;2023-07-29T08:45:35;2.80;;;1.45;;
74974;SDS011;68459;50.836;19.138;2023-07-29T08:48:40;2.28;;;1.40;;
74974;SDS011;68459;50.836;19.138;2023-07-29T08:51:46;4.00;;;1.40;;
74974;SDS011;68459;50.836;19.138;2023-07-29T08:54:51;3.47;;;1.90;;
74974;SDS011;68459;50.836;19.138;2023-07-29T08:57:56;2.67;;;1.50;;
74974;SDS011;68459;50.836;19.138;2023-07-29T09:01:01;3.42;;;1.70;;
74974;SDS011;68459;50.836;19.138;2023-07-29T09:04:04;3.38;;;1.80;;
74974;SDS011;68459;50.836;19.138;2023-07-29T09:07:10;4.03;;;1.57;;
74974;SDS011;68459;50.836;19.138;2023-07-29T09:10:14;3.15;;;1.70;;
74974;SDS011;68459;50.836;19.138;2023-07-29T09:13:18;2.97;;;1.70;;
74974;SDS011;68459;50.836;19.138;2023-07-29T09:16:22;3.40;;;2.30;;
74974;SDS011;68459;50.836;19.138;2023-07-29T09:19:27;3.70;;;1.83;;
74974;SDS011;68459;50.836;19.138;2023-07-29T09:22:33;2.90;;;1.83;;
74974;SDS011;68459;50.836;19.138;2023-07-29T09:25:38;2.88;;;1.70;;
74974;SDS011;68459;50.836;19.138;2023-07-29T09:28:42;2.17;;;1.45;;
74974;SDS011;68459;50.836;19.138;2023-07-29T09:31:46;2.35;;;1.65;;
74974;SDS011;68459;50.836;19.138;2023-07-29T09:34:51;5.47;;;1.63;;
74974;SDS011;68459;50.836;19.138;2023-07-29T09:37:56;4.47;;;1.70;;
74974;SDS011;68459;50.836;19.138;2023-07-29T09:41:00;3.92;;;1.67;;
74974;SDS011;68459;50.836;19.138;2023-07-29T09:44:04;2.88;;;1.77;;
74974;SDS011;68459;50.836;19.138;2023-07-29T09:47:08;3.85;;;1.80;;
74974;SDS011;68459;50.836;19.138;2023-07-29T09:50:12;2.55;;;1.80;;
74974;SDS011;68459;50.836;19.138;2023-07-29T09:53:17;3.03;;;1.60;;
74974;SDS011;68459;50.836;19.138;2023-07-29T09:56:23;3.15;;;1.92;;
74974;SDS011;68459;50.836;19.138;2023-07-29T09:59:29;3.70;;;1.90;;
74974;SDS011;68459;50.836;19.138;2023-07-29T10:02:38;3.17;;;1.80;;
74974;SDS011;68459;50.836;19.138;2023-07-29T10:45:24;3.38;;;1.67;;
74974;SDS011;68459;50.836;19.138;2023-07-29T10:48:40;2.30;;;1.40;;
74974;SDS011;68459;50.836;19.138;2023-07-29T10:51:46;3.70;;;1.25;;
74974;SDS011;68459;50.836;19.138;2023-07-29T10:54:54;2.47;;;1.70;;
74974;SDS011;68459;50.836;19.138;2023-07-29T10:58:06;2.63;;;1.38;;
74974;SDS011;68459;50.836;19.138;2023-07-29T11:01:13;2.33;;;1.50;;
74974;SDS011;68459;50.836;19.138;2023-07-29T11:04:30;2.50;;;1.57;;
74974;SDS011;68459;50.836;19.138;2023-07-29T11:07:45;4.60;;;1.70;;
74974;SDS011;68459;50.836;19.138;2023-07-29T11:11:00;2.92;;;1.40;;
74974;SDS011;68459;50.836;19.138;2023-07-29T11:14:11;3.03;;;1.30;;
74974;SDS011;68459;50.836;19.138;2023-07-29T11:17:15;3.90;;;1.80;;
74974;SDS011;68459;50.836;19.138;2023-07-29T11:20:21;2.40;;;1.30;;
74974;SDS011;68459;50.836;19.138;2023-07-29T11:23:30;2.20;;;1.30;;
74974;SDS011;68459;50.836;19.138;2023-07-29T11:26:36;2.47;;;1.10;;
74974;SDS011;68459;50.836;19.138;2023-07-29T11:29:41;3.28;;;1.10;;
74974;SDS011;68459;50.836;19.138;2023-07-29T11:32:46;2.20;;;1.10;;
74974;SDS011;68459;50.836;19.138;2023-07-29T11:35:50;2.10;;;1.30;;
74974;SDS011;68459;50.836;19.138;2023-07-29T11:38:55;2.13;;;1.20;;
74974;SDS011;68459;50.836;19.138;2023-07-29T11:41:58;1.50;;;1.00;;
74974;SDS011;68459;50.836;19.138;2023-07-29T11:45:04;2.38;;;1.40;;
74974;SDS011;68459;50.836;19.138;2023-07-29T11:48:10;3.38;;;2.03;;
74974;SDS011;68459;50.836;19.138;2023-07-29T11:51:14;4.17;;;1.37;;
74974;SDS011;68459;50.836;19.138;2023-07-29T11:54:18;3.43;;;1.33;;
74974;SDS011;68459;50.836;19.138;2023-07-29T11:57:24;2.60;;;1.20;;
74974;SDS011;68459;50.836;19.138;2023-07-29T12:00:29;5.13;;;1.40;;
74974;SDS011;68459;50.836;19.138;2023-07-29T12:03:33;2.05;;;1.20;;
74974;SDS011;68459;50.836;19.138;2023-07-29T12:06:37;2.97;;;1.37;;
74974;SDS011;68459;50.836;19.138;2023-07-29T12:09:42;3.53;;;1.27;;
74974;SDS011;68459;50.836;19.138;2023-07-29T12:12:47;1.90;;;1.15;;
74974;SDS011;68459;50.836;19.138;2023-07-29T12:15:54;2.60;;;1.52;;
74974;SDS011;68459;50.836;19.138;2023-07-29T12:19:04;3.08;;;1.20;;
74974;SDS011;68459;50.836;19.138;2023-07-29T12:22:09;2.87;;;1.10;;
74974;SDS011;68459;50.836;19.138;2023-07-29T12:25:14;2.40;;;1.00;;
74974;SDS011;68459;50.836;19.138;2023-07-29T12:28:17;1.77;;;1.00;;
74974;SDS011;68459;50.836;19.138;2023-07-29T12:31:31;2.28;;;1.08;;
74974;SDS011;68459;50.836;19.138;2023-07-29T12:34:36;1.85;;;1.10;;
74974;SDS011;68459;50.836;19.138;2023-07-29T12:37:42;3.33;;;1.13;;
74974;SDS011;68459;50.836;19.138;2023-07-29T12:40:45;1.97;;;1.10;;
74974;SDS011;68459;50.836;19.138;2023-07-29T12:43:49;1.70;;;1.00;;
74974;SDS011;68459;50.836;19.138;2023-07-29T12:46:54;2.88;;;1.30;;
74974;SDS011;68459;50.836;19.138;2023-07-29T12:49:58;1.70;;;1.10;;
74974;SDS011;68459;50.836;19.138;2023-07-29T12:53:02;2.60;;;1.30;;
74974;SDS011;68459;50.836;19.138;2023-07-29T12:56:07;2.60;;;1.20;;
74974;SDS011;68459;50.836;19.138;2023-07-29T12:59:11;3.58;;;1.10;;
74974;SDS011;68459;50.836;19.138;2023-07-29T13:02:16;2.05;;;1.30;;
74974;SDS011;68459;50.836;19.138;2023-07-29T13:05:20;1.75;;;1.10;;
74974;SDS011;68459;50.836;19.138;2023-07-29T13:08:24;3.20;;;1.13;;
74974;SDS011;68459;50.836;19.138;2023-07-29T13:11:28;1.90;;;1.10;;
74974;SDS011;68459;50.836;19.138;2023-07-29T13:14:34;1.85;;;0.95;;
74974;SDS011;68459;50.836;19.138;2023-07-29T13:17:39;2.63;;;1.30;;
74974;SDS011;68459;50.836;19.138;2023-07-29T13:20:43;1.85;;;1.10;;
74974;SDS011;68459;50.836;19.138;2023-07-29T13:23:47;2.33;;;1.00;;
74974;SDS011;68459;50.836;19.138;2023-07-29T13:26:51;1.70;;;0.90;;
74974;SDS011;68459;50.836;19.138;2023-07-29T13:29:55;2.15;;;0.90;;
74974;SDS011;68459;50.836;19.138;2023-07-29T13:33:00;2.05;;;0.98;;
74974;SDS011;68459;50.836;19.138;2023-07-29T13:36:04;2.28;;;1.05;;
74974;SDS011;68459;50.836;19.138;2023-07-29T13:39:10;1.60;;;0.90;;
74974;SDS011;68459;50.836;19.138;2023-07-29T13:42:14;1.70;;;1.03;;
74974;SDS011;68459;50.836;19.138;2023-07-29T13:45:18;1.42;;;0.77;;
74974;SDS011;68459;50.836;19.138;2023-07-29T13:48:24;3.55;;;1.05;;
74974;SDS011;68459;50.836;19.138;2023-07-29T13:51:28;2.38;;;1.00;;
74974;SDS011;68459;50.836;19.138;2023-07-29T13:54:32;3.47;;;1.10;;
74974;SDS011;68459;50.836;19.138;2023-07-29T13:57:36;1.53;;;0.80;;
74974;SDS011;68459;50.836;19.138;2023-07-29T14:00:41;2.60;;;1.10;;
74974;SDS011;68459;50.836;19.138;2023-07-29T14:03:46;1.80;;;1.00;;
74974;SDS011;68459;50.836;19.138;2023-07-29T14:06:50;2.13;;;1.30;;
74974;SDS011;68459;50.836;19.138;2023-07-29T14:10:00;3.17;;;1.20;;
74974;SDS011;68459;50.836;19.138;2023-07-29T14:13:04;2.80;;;1.40;;
74974;SDS011;68459;50.836;19.138;2023-07-29T14:16:08;3.53;;;1.00;;
74974;SDS011;68459;50.836;19.138;2023-07-29T14:19:13;2.67;;;1.27;;
74974;SDS011;68459;50.836;19.138;2023-07-29T14:22:17;2.53;;;1.20;;
74974;SDS011;68459;50.836;19.138;2023-07-29T14:25:22;2.20;;;1.10;;
74974;SDS011;68459;50.836;19.138;2023-07-29T14:28:26;3.90;;;1.00;;
74974;SDS011;68459;50.836;19.138;2023-07-29T14:31:30;2.30;;;1.10;;
74974;SDS011;68459;50.836;19.138;2023-07-29T14:34:35;2.70;;;1.63;;
74974;SDS011;68459;50.836;19.138;2023-07-29T14:37:40;2.13;;;1.40;;
74974;SDS011;68459;50.836;19.138;2023-07-29T14:40:44;2.53;;;1.47;;
74974;SDS011;68459;50.836;19.138;2023-07-29T14:43:51;2.27;;;1.50;;
74974;SDS011;68459;50.836;19.138;2023-07-29T14:46:55;2.22;;;1.33;;
74974;SDS011;68459;50.836;19.138;2023-07-29T14:50:00;3.47;;;1.80;;
74974;SDS011;68459;50.836;19.138;2023-07-29T14:53:04;2.30;;;1.20;;
74974;SDS011;68459;50.836;19.138;2023-07-29T14:56:08;2.03;;;1.30;;
74974;SDS011;68459;50.836;19.138;2023-07-29T14:59:12;2.57;;;1.10;;
74974;SDS011;68459;50.836;19.138;2023-07-29T15:02:16;1.90;;;1.10;;
74974;SDS011;68459;50.836;19.138;2023-07-29T15:05:21;2.13;;;1.20;;
74974;SDS011;68459;50.836;19.138;2023-07-29T15:08:25;2.28;;;1.25;;
74974;SDS011;68459;50.836;19.138;2023-07-29T15:11:31;1.77;;;0.93;;
74974;SDS011;68459;50.836;19.138;2023-07-29T15:14:35;1.93;;;0.90;;
74974;SDS011;68459;50.836;19.138;2023-07-29T15:17:39;3.17;;;1.27;;
74974;SDS011;68459;50.836;19.138;2023-07-29T15:20:45;2.30;;;1.20;;
74974;SDS011;68459;50.836;19.138;2023-07-29T15:23:48;2.53;;;1.10;;
74974;SDS011;68459;50.836;19.138;2023-07-29T15:26:52;2.53;;;1.50;;
74974;SDS011;68459;50.836;19.138;2023-07-29T15:29:56;2.33;;;1.33;;
74974;SDS011;68459;50.836;19.138;2023-07-29T15:33:00;2.05;;;1.20;;
74974;SDS011;68459;50.836;19.138;2023-07-29T15:36:06;2.42;;;1.30;;
74974;SDS011;68459;50.836;19.138;2023-07-29T15:39:10;4.20;;;1.30;;
74974;SDS011;68459;50.836;19.138;2023-07-29T15:42:13;2.00;;;1.23;;
74974;SDS011;68459;50.836;19.138;2023-07-29T15:45:18;2.03;;;1.17;;
74974;SDS011;68459;50.836;19.138;2023-07-29T15:48:25;3.08;;;1.38;;
74974;SDS011;68459;50.836;19.138;2023-07-29T15:51:32;2.15;;;1.50;;
74974;SDS011;68459;50.836;19.138;2023-07-29T15:54:36;2.95;;;1.52;;
74974;SDS011;68459;50.836;19.138;2023-07-29T15:57:40;2.50;;;1.13;;
74974;SDS011;68459;50.836;19.138;2023-07-29T16:00:44;2.40;;;1.50;;
74974;SDS011;68459;50.836;19.138;2023-07-29T16:03:47;2.88;;;1.80;;
74974;SDS011;68459;50.836;19.138;2023-07-29T16:06:53;3.53;;;1.90;;
74974;SDS011;68459;50.836;19.138;2023-07-29T16:09:57;5.15;;;2.75;;
74974;SDS011;68459;50.836;19.138;2023-07-29T16:13:01;3.90;;;2.43;;
74974;SDS011;68459;50.836;19.138;2023-07-29T16:16:07;4.80;;;2.00;;
74974;SDS011;68459;50.836;19.138;2023-07-29T16:19:11;3.08;;;2.17;;
74974;SDS011;68459;50.836;19.138;2023-07-29T16:22:16;2.95;;;1.63;;
74974;SDS011;68459;50.836;19.138;2023-07-29T16:25:20;3.55;;;1.90;;
74974;SDS011;68459;50.836;19.138;2023-07-29T16:28:24;2.47;;;1.40;;
74974;SDS011;68459;50.836;19.138;2023-07-29T16:31:29;3.53;;;1.60;;
74974;SDS011;68459;50.836;19.138;2023-07-29T16:34:33;2.15;;;1.48;;
74974;SDS011;68459;50.836;19.138;2023-07-29T16:37:38;3.85;;;1.98;;
74974;SDS011;68459;50.836;19.138;2023-07-29T16:40:42;2.83;;;1.75;;
74974;SDS011;68459;50.836;19.138;2023-07-29T16:44:06;4.27;;;1.67;;
74974;SDS011;68459;50.836;19.138;2023-07-29T16:47:10;2.67;;;1.60;;
74974;SDS011;68459;50.836;19.138;2023-07-29T16:50:14;2.90;;;1.80;;
74974;SDS011;68459;50.836;19.138;2023-07-29T16:53:19;2.20;;;1.42;;
74974;SDS011;68459;50.836;19.138;2023-07-29T16:56:23;3.35;;;1.55;;
74974;SDS011;68459;50.836;19.138;2023-07-29T16:59:27;2.73;;;1.60;;
74974;SDS011;68459;50.836;19.138;2023-07-29T17:02:31;3.38;;;1.80;;
74974;SDS011;68459;50.836;19.138;2023-07-29T17:05:35;3.75;;;1.60;;
74974;SDS011;68459;50.836;19.138;2023-07-29T17:08:41;3.88;;;1.88;;
74974;SDS011;68459;50.836;19.138;2023-07-29T17:11:45;4.65;;;1.60;;
74974;SDS011;68459;50.836;19.138;2023-07-29T17:14:49;3.63;;;1.70;;
74974;SDS011;68459;50.836;19.138;2023-07-29T17:17:53;2.78;;;1.80;;
74974;SDS011;68459;50.836;19.138;2023-07-29T17:20:59;4.25;;;1.77;;
74974;SDS011;68459;50.836;19.138;2023-07-29T17:24:05;2.53;;;1.60;;
74974;SDS011;68459;50.836;19.138;2023-07-29T17:27:09;2.95;;;1.58;;
74974;SDS011;68459;50.836;19.138;2023-07-29T17:30:13;4.90;;;1.67;;
74974;SDS011;68459;50.836;19.138;2023-07-29T17:33:17;5.53;;;1.77;;
74974;SDS011;68459;50.836;19.138;2023-07-29T17:36:21;4.80;;;1.80;;
74974;SDS011;68459;50.836;19.138;2023-07-29T17:39:26;4.03;;;1.88;;
74974;SDS011;68459;50.836;19.138;2023-07-29T17:42:30;3.05;;;1.67;;
74974;SDS011;68459;50.836;19.138;2023-07-29T17:45:34;3.40;;;2.47;;
74974;SDS011;68459;50.836;19.138;2023-07-29T17:48:38;5.30;;;2.08;;
74974;SDS011;68459;50.836;19.138;2023-07-29T17:51:42;3.65;;;1.73;;
74974;SDS011;68459;50.836;19.138;2023-07-29T17:54:47;4.55;;;1.80;;
74974;SDS011;68459;50.836;19.138;2023-07-29T17:57:51;3.35;;;1.60;;
74974;SDS011;68459;50.836;19.138;2023-07-29T18:00:55;2.93;;;0.90;;
74974;SDS011;68459;50.836;19.138;2023-07-29T18:04:00;2.78;;;0.95;;
74974;SDS011;68459;50.836;19.138;2023-07-29T18:07:04;4.03;;;0.88;;
74974;SDS011;68459;50.836;19.138;2023-07-29T18:10:10;3.30;;;0.80;;
74974;SDS011;68459;50.836;19.138;2023-07-29T18:13:14;2.63;;;0.77;;
74974;SDS011;68459;50.836;19.138;2023-07-29T18:16:18;2.50;;;1.03;;
74974;SDS011;68459;50.836;19.138;2023-07-29T18:19:22;4.88;;;0.90;;
74974;SDS011;68459;50.836;19.138;2023-07-29T18:22:29;3.28;;;0.73;;
74974;SDS011;68459;50.836;19.138;2023-07-29T18:25:34;2.58;;;0.80;;
74974;SDS011;68459;50.836;19.138;2023-07-29T18:28:38;1.73;;;0.70;;
74974;SDS011;68459;50.836;19.138;2023-07-29T18:31:42;2.77;;;0.67;;
74974;SDS011;68459;50.836;19.138;2023-07-29T18:34:46;3.72;;;0.90;;
74974;SDS011;68459;50.836;19.138;2023-07-29T18:37:50;1.60;;;0.80;;
74974;SDS011;68459;50.836;19.138;2023-07-29T18:41:01;1.85;;;0.70;;
74974;SDS011;68459;50.836;19.138;2023-07-29T18:44:05;1.80;;;0.80;;
74974;SDS011;68459;50.836;19.138;2023-07-29T18:47:09;3.77;;;0.90;;
74974;SDS011;68459;50.836;19.138;2023-07-29T18:50:13;3.08;;;0.88;;
74974;SDS011;68459;50.836;19.138;2023-07-29T18:53:17;2.75;;;1.13;;
74974;SDS011;68459;50.836;19.138;2023-07-29T18:56:22;2.85;;;1.10;;